createdAt,value
2023-05-10T00:00:15.223Z,91.84
2023-05-10T00:04:28.469Z,91.68
2023-05-10T00:08:40.046Z,91.62
2023-05-10T00:12:51.635Z,91.56
2023-05-10T00:17:03.198Z,91.63
2023-05-10T00:21:14.729Z,91.47
2023-05-10T00:25:26.305Z,91.32
2023-05-10T00:29:37.824Z,91.41
2023-05-10T00:33:49.312Z,91.71
2023-05-10T00:38:00.909Z,91.71
2023-05-10T00:42:12.466Z,91.57
2023-05-10T00:46:24.433Z,91.77
2023-05-10T00:50:36.176Z,91.84
2023-05-10T00:54:48.632Z,91.63
2023-05-10T00:59:00.753Z,91.70
2023-05-10T01:03:12.539Z,91.66
2023-05-10T01:07:24.313Z,91.76
2023-05-10T01:11:37.591Z,91.90
2023-05-10T01:15:49.227Z,92.16
2023-05-10T01:20:00.957Z,92.37
2023-05-10T01:24:51.201Z,92.39
2023-05-10T01:29:27.517Z,92.25
2023-05-10T01:33:59.957Z,92.35
2023-05-10T01:38:47.829Z,92.37
2023-05-10T01:43:03.630Z,92.66
2023-05-10T01:47:31.775Z,92.65
2023-05-10T01:51:55.698Z,92.70
2023-05-10T01:56:09.462Z,92.97
2023-05-10T02:00:21.306Z,93.14
2023-05-10T02:04:39.581Z,93.12
2023-05-10T02:08:53.044Z,93.23
2023-05-10T02:13:08.272Z,93.25
2023-05-10T02:17:20.456Z,93.31
2023-05-10T02:21:33.686Z,93.53
2023-05-10T02:25:46.462Z,93.37
2023-05-10T02:29:59.835Z,93.50
2023-05-10T02:34:12.554Z,93.57
2023-05-10T02:38:25.372Z,93.68
2023-05-10T02:42:38.734Z,93.76
2023-05-10T02:46:50.672Z,93.75
2023-05-10T02:51:08.011Z,93.82
2023-05-10T02:55:26.336Z,93.92
2023-05-10T02:59:38.074Z,94.03
2023-05-10T03:03:49.722Z,94.13
2023-05-10T03:08:04.628Z,93.85
2023-05-10T03:13:02.696Z,94.08
2023-05-10T03:17:27.205Z,94.02
2023-05-10T03:21:43.094Z,93.95
2023-05-10T03:25:55.458Z,94.14
2023-05-10T03:30:14.252Z,93.82
2023-05-10T03:34:27.040Z,93.64
2023-05-10T03:38:38.782Z,93.58
2023-05-10T03:42:50.877Z,93.63
2023-05-10T03:47:02.510Z,93.49
2023-05-10T03:51:14.390Z,93.59
2023-05-10T03:55:26.047Z,93.75
2023-05-10T03:59:37.630Z,93.43
2023-05-10T04:03:49.367Z,93.24
2023-05-10T04:08:01.094Z,93.04
2023-05-10T04:12:12.804Z,93.37
2023-05-10T04:16:24.356Z,93.21
2023-05-10T04:20:35.899Z,93.40
2023-05-10T04:24:47.451Z,93.39
2023-05-10T04:28:58.998Z,93.48
2023-05-10T04:33:10.609Z,93.37
2023-05-10T04:37:23.815Z,93.21
2023-05-10T04:41:35.577Z,93.14
2023-05-10T04:45:47.292Z,93.26
2023-05-10T04:49:59.415Z,93.16
2023-05-10T04:54:11.300Z,93.39
2023-05-10T04:58:22.889Z,93.30
2023-05-10T05:02:34.526Z,93.25
2023-05-10T05:06:46.075Z,93.54
2023-05-10T05:10:57.674Z,93.46
2023-05-10T05:15:10.673Z,93.39
2023-05-10T05:19:22.449Z,93.41
2023-05-10T05:23:34.005Z,93.63
2023-05-10T05:27:45.576Z,93.29
2023-05-10T05:31:57.072Z,93.16
2023-05-10T05:36:09.430Z,93.23
2023-05-10T05:40:21.484Z,93.36
2023-05-10T05:44:33.103Z,93.37
2023-05-10T05:48:44.691Z,93.54
2023-05-10T05:52:56.288Z,93.28
2023-05-10T05:57:08.503Z,93.09
2023-05-10T06:01:20.189Z,93.09
2023-05-10T06:05:31.796Z,92.82
2023-05-10T06:09:43.327Z,92.55
2023-05-10T06:13:54.922Z,92.71
2023-05-10T06:18:07.000Z,92.65
2023-05-10T06:22:18.762Z,92.65
2023-05-10T06:26:30.476Z,92.56
2023-05-10T06:30:42.032Z,92.59
2023-05-10T06:34:53.689Z,92.51
2023-05-10T06:39:05.444Z,92.56
2023-05-10T06:43:17.337Z,92.67
2023-05-10T06:47:28.974Z,92.85
2023-05-10T06:51:41.245Z,92.95
2023-05-10T06:55:58.996Z,93.12
2023-05-10T07:00:11.292Z,93.04
2023-05-10T07:04:22.970Z,92.86
2023-05-10T07:08:35.454Z,92.87
2023-05-10T07:12:47.157Z,93.02
2023-05-10T07:16:58.965Z,92.74
2023-05-10T07:21:10.735Z,92.48
2023-05-10T07:25:22.451Z,92.73
2023-05-10T07:29:34.102Z,92.56
2023-05-10T07:33:45.693Z,92.35
2023-05-10T07:37:57.474Z,91.84
2023-05-10T07:42:09.378Z,91.78
2023-05-10T07:46:21.277Z,91.61
2023-05-10T07:50:33.161Z,91.39
2023-05-10T07:54:45.646Z,91.38
2023-05-10T07:58:57.538Z,91.35
2023-05-10T08:03:09.447Z,91.03
2023-05-10T08:07:21.151Z,90.78
2023-05-10T08:11:34.303Z,90.78
2023-05-10T08:15:47.287Z,90.36
2023-05-10T08:19:58.976Z,90.35
2023-05-10T08:24:10.656Z,88.71
2023-05-10T08:28:22.229Z,87.76
2023-05-10T08:32:33.889Z,87.04
2023-05-10T08:36:45.566Z,86.41
2023-05-10T08:40:58.042Z,86.11
2023-05-10T08:45:11.412Z,85.90
2023-05-10T08:49:25.022Z,85.77
2023-05-10T08:53:40.366Z,85.89
2023-05-10T08:57:52.264Z,85.59
2023-05-10T09:02:05.804Z,84.30
2023-05-10T09:06:17.974Z,82.89
2023-05-10T09:10:31.230Z,81.71
2023-05-10T09:14:45.362Z,80.74
2023-05-10T09:18:57.233Z,79.50
2023-05-10T09:23:09.315Z,78.27
2023-05-10T09:27:27.961Z,76.57
2023-05-10T09:31:47.802Z,76.27
2023-05-10T09:36:08.353Z,75.38
2023-05-10T09:40:22.006Z,73.65
2023-05-10T09:44:35.183Z,73.93
2023-05-10T09:48:48.156Z,74.13
2023-05-10T09:53:02.021Z,74.63
2023-05-10T09:57:22.843Z,74.28
2023-05-10T10:01:35.934Z,74.39
2023-05-10T10:05:49.456Z,74.80
2023-05-10T10:10:01.563Z,74.61
2023-05-10T10:14:13.665Z,74.57
2023-05-10T10:18:28.228Z,74.52
2023-05-10T10:22:40.027Z,74.49
2023-05-10T10:26:56.783Z,74.16
2023-05-10T10:31:33.472Z,74.69
2023-05-10T10:35:46.889Z,74.40
2023-05-10T10:39:58.539Z,73.51
2023-05-10T10:44:31.878Z,72.95
2023-05-10T10:49:08.970Z,72.74
2023-05-10T10:53:21.230Z,72.44
2023-05-10T10:58:01.051Z,72.69
2023-05-10T11:02:46.786Z,72.86
2023-05-10T11:07:18.229Z,72.41
2023-05-10T11:11:29.889Z,71.47
2023-05-10T11:15:52.845Z,70.81
2023-05-10T11:20:10.610Z,70.24
2023-05-10T11:24:23.921Z,69.74
2023-05-10T11:28:35.713Z,67.97
2023-05-10T11:32:47.582Z,67.06
2023-05-10T11:36:59.454Z,67.33
2023-05-10T11:41:14.072Z,67.24
2023-05-10T11:45:27.045Z,67.21
2023-05-10T11:49:38.645Z,66.42
2023-05-10T11:53:52.302Z,65.24
2023-05-10T11:58:03.974Z,64.43
2023-05-10T12:02:16.099Z,64.27
2023-05-10T12:06:33.226Z,64.05
2023-05-10T12:10:44.981Z,63.73
2023-05-10T12:14:56.641Z,63.66
2023-05-10T12:19:08.559Z,61.90
2023-05-10T12:23:20.906Z,61.82
2023-05-10T12:27:33.381Z,61.48
2023-05-10T12:31:58.716Z,61.37
2023-05-10T12:36:16.161Z,61.96
2023-05-10T12:40:27.758Z,62.10
2023-05-10T12:44:40.208Z,61.60
2023-05-10T12:49:07.501Z,61.29
2023-05-10T12:53:20.825Z,61.31
2023-05-10T12:57:32.426Z,60.78
2023-05-10T13:01:44.066Z,60.14
2023-05-10T13:05:55.840Z,60.52
2023-05-10T13:10:07.906Z,59.51
2023-05-10T13:14:21.344Z,59.38
2023-05-10T13:18:32.951Z,58.88
2023-05-10T13:22:45.537Z,59.08
2023-05-10T13:26:57.147Z,59.98
2023-05-10T13:31:09.198Z,59.84
2023-05-10T13:35:21.072Z,59.94
2023-05-10T13:39:35.384Z,60.95
2023-05-10T13:43:47.112Z,62.22
2023-05-10T13:47:58.921Z,62.80
2023-05-10T13:52:11.127Z,63.82
2023-05-10T13:56:22.829Z,65.08
2023-05-10T14:00:34.734Z,65.14
2023-05-10T14:04:46.977Z,65.48
2023-05-10T14:08:58.675Z,66.39
2023-05-10T14:13:10.380Z,67.23
2023-05-10T14:17:23.273Z,67.68
2023-05-10T14:21:35.117Z,67.84
2023-05-10T14:25:46.845Z,68.32
2023-05-10T14:29:58.544Z,68.94
2023-05-10T14:34:10.339Z,69.35
2023-05-10T14:38:22.002Z,69.38
2023-05-10T14:42:33.697Z,69.32
2023-05-10T14:47:12.131Z,69.74
2023-05-10T14:51:24.054Z,69.66
2023-05-10T14:55:36.133Z,70.02
2023-05-10T14:59:47.744Z,70.46
2023-05-10T15:04:02.000Z,70.41
2023-05-10T15:08:14.165Z,69.76
2023-05-10T15:12:26.759Z,69.17
2023-05-10T15:16:38.515Z,68.79
2023-05-10T15:20:50.275Z,68.64
2023-05-10T15:25:02.529Z,68.47
2023-05-10T15:29:20.587Z,68.43
2023-05-10T15:33:32.200Z,68.27
2023-05-10T15:37:43.852Z,68.39
2023-05-10T15:41:55.455Z,68.16
2023-05-10T15:46:07.295Z,68.31
2023-05-10T15:50:19.247Z,68.21
2023-05-10T15:54:30.853Z,68.38
2023-05-10T15:58:43.961Z,68.61
2023-05-10T16:02:55.624Z,68.31
2023-05-10T16:07:07.262Z,68.28
2023-05-10T16:11:18.888Z,68.34
2023-05-10T16:15:30.538Z,67.94
2023-05-10T16:19:42.095Z,67.32
2023-05-10T16:23:53.945Z,67.66
2023-05-10T16:28:07.848Z,67.36
2023-05-10T16:32:19.571Z,67.15
2023-05-10T16:36:31.661Z,66.04
2023-05-10T16:40:43.486Z,65.52
2023-05-10T16:44:55.309Z,65.44
2023-05-10T16:49:07.088Z,65.01
2023-05-10T16:53:18.901Z,64.75
2023-05-10T16:57:31.122Z,64.58
2023-05-10T17:01:42.948Z,64.11
2023-05-10T17:05:54.688Z,64.43
2023-05-10T17:10:06.940Z,64.85
2023-05-10T17:14:18.592Z,64.48
2023-05-10T17:18:30.502Z,64.35
2023-05-10T17:22:42.137Z,64.54
2023-05-10T17:26:53.793Z,64.47
2023-05-10T17:31:05.403Z,64.72
2023-05-10T17:35:17.420Z,65.39
2023-05-10T17:39:29.247Z,65.61
2023-05-10T17:43:40.872Z,65.90
2023-05-10T17:47:52.491Z,66.18
2023-05-10T17:52:04.316Z,66.15
2023-05-10T17:56:16.097Z,66.41
2023-05-10T18:00:27.897Z,66.47
2023-05-10T18:04:40.837Z,67.19
2023-05-10T18:08:52.551Z,67.54
2023-05-10T18:13:07.360Z,67.88
2023-05-10T18:17:20.369Z,68.62
2023-05-10T18:21:32.756Z,69.15
2023-05-10T18:25:44.375Z,69.41
2023-05-10T18:29:55.992Z,69.80
2023-05-10T18:34:07.740Z,70.17
2023-05-10T18:38:19.555Z,70.69
2023-05-10T18:42:31.149Z,70.99
2023-05-10T18:46:42.972Z,71.26
2023-05-10T18:50:54.659Z,71.74
2023-05-10T18:55:07.114Z,71.97
2023-05-10T18:59:18.818Z,72.10
2023-05-10T19:03:30.583Z,72.56
2023-05-10T19:07:43.894Z,72.75
2023-05-10T19:11:55.982Z,72.86
2023-05-10T19:16:13.001Z,73.32
2023-05-10T19:20:25.123Z,73.41
2023-05-10T19:24:37.057Z,73.46
2023-05-10T19:28:51.462Z,73.68
2023-05-10T19:33:04.862Z,73.95
2023-05-10T19:37:16.596Z,74.17
2023-05-10T19:41:28.614Z,74.22
2023-05-10T19:45:40.371Z,74.46
2023-05-10T19:49:52.072Z,74.86
2023-05-10T19:54:03.888Z,75.42
2023-05-10T19:58:15.570Z,75.76
2023-05-10T20:02:27.253Z,76.17
2023-05-10T20:06:39.026Z,76.59
2023-05-10T20:10:50.768Z,76.83
2023-05-10T20:15:03.692Z,77.30
2023-05-10T20:19:15.784Z,77.64
2023-05-10T20:23:27.666Z,78.26
2023-05-10T20:27:39.479Z,78.80
2023-05-10T20:31:51.203Z,79.01
2023-05-10T20:36:02.893Z,79.07
2023-05-10T20:40:14.535Z,79.11
2023-05-10T20:44:26.634Z,79.63
2023-05-10T20:48:38.261Z,80.06
2023-05-10T20:52:52.722Z,80.38
2023-05-10T20:57:04.349Z,80.30
2023-05-10T21:01:16.079Z,80.55
2023-05-10T21:05:28.060Z,80.80
2023-05-10T21:09:39.741Z,80.96
2023-05-10T21:13:51.597Z,81.28
2023-05-10T21:18:03.463Z,81.58
2023-05-10T21:22:15.279Z,81.81
2023-05-10T21:26:26.957Z,81.92
2023-05-10T21:30:38.624Z,82.13
2023-05-10T21:34:50.278Z,82.27
2023-05-10T21:39:01.886Z,82.37
2023-05-10T21:43:13.610Z,82.36
2023-05-10T21:47:25.240Z,82.70
2023-05-10T21:51:36.947Z,82.88
2023-05-10T21:55:48.551Z,82.82
2023-05-10T22:00:00.157Z,82.98
2023-05-10T22:04:11.792Z,83.30
2023-05-10T22:08:23.491Z,83.29
2023-05-10T22:12:35.284Z,83.44
2023-05-10T22:16:46.902Z,83.75
2023-05-10T22:20:58.510Z,83.87
2023-05-10T22:25:10.438Z,84.04
2023-05-10T22:29:22.768Z,84.06
2023-05-10T22:33:34.432Z,84.27
2023-05-10T22:37:46.414Z,84.42
2023-05-10T22:41:58.057Z,84.53
2023-05-10T22:46:09.734Z,84.53
2023-05-10T22:50:21.627Z,84.82
2023-05-10T22:54:34.880Z,84.53
2023-05-10T22:58:48.463Z,84.81
2023-05-10T23:03:00.673Z,84.89
2023-05-10T23:07:12.291Z,85.46
2023-05-10T23:11:23.918Z,85.13
2023-05-10T23:15:36.309Z,85.17
2023-05-10T23:19:47.954Z,85.21
2023-05-10T23:23:59.660Z,85.23
2023-05-10T23:28:11.411Z,85.44
2023-05-10T23:32:23.404Z,85.59
2023-05-10T23:36:35.081Z,85.48
2023-05-10T23:40:50.611Z,85.87
2023-05-10T23:45:02.890Z,86.03
2023-05-10T23:49:14.578Z,86.12
2023-05-10T23:53:26.445Z,86.18
2023-05-10T23:57:38.093Z,86.42
